createdAt,value
2019-06-26T00:02:20.110Z,28.80
2019-06-26T00:04:49.886Z,29.13
2019-06-26T00:07:19.676Z,31.13
2019-06-26T00:09:49.430Z,34.23
2019-06-26T00:12:19.204Z,31.77
2019-06-26T00:14:48.978Z,33.40
2019-06-26T00:17:18.721Z,33.13
2019-06-26T00:19:48.480Z,33.07
2019-06-26T00:22:18.997Z,28.33
2019-06-26T00:24:48.708Z,29.17
2019-06-26T00:27:18.487Z,27.57
2019-06-26T00:29:48.284Z,29.53
2019-06-26T00:32:18.082Z,39.73
2019-06-26T00:34:47.806Z,37.40
2019-06-26T00:37:17.538Z,36.73
2019-06-26T00:39:47.243Z,36.83
2019-06-26T00:42:16.962Z,35.97
2019-06-26T00:44:46.694Z,36.30
2019-06-26T00:47:16.520Z,41.33
2019-06-26T00:49:46.598Z,40.00
2019-06-26T00:52:16.352Z,42.27
2019-06-26T00:54:46.043Z,38.80
2019-06-26T00:57:15.820Z,36.37
2019-06-26T00:59:45.563Z,38.03
2019-06-26T01:02:15.269Z,39.53
2019-06-26T01:04:47.040Z,35.90
2019-06-26T01:07:16.712Z,37.50
2019-06-26T01:09:46.387Z,39.30
2019-06-26T01:12:16.152Z,48.90
2019-06-26T01:14:45.951Z,45.97
2019-06-26T01:17:15.722Z,47.07
2019-06-26T01:19:45.402Z,44.07
2019-06-26T01:22:15.151Z,49.87
2019-06-26T01:24:45.051Z,54.17
2019-06-26T01:27:14.955Z,46.30
2019-06-26T01:29:44.654Z,43.63
2019-06-26T01:32:14.356Z,42.17
2019-06-26T01:34:44.148Z,38.53
2019-06-26T01:37:13.894Z,48.53
2019-06-26T01:39:43.619Z,51.17
2019-06-26T01:42:13.309Z,69.33
2019-06-26T01:44:43.071Z,58.07
2019-06-26T01:47:12.781Z,59.40
2019-06-26T01:49:42.549Z,59.43
2019-06-26T01:52:12.267Z,63.37
2019-06-26T01:54:42.195Z,76.10
2019-06-26T01:57:11.858Z,67.17
2019-06-26T01:59:41.533Z,78.20
2019-06-26T02:02:11.356Z,87.87
2019-06-26T02:04:41.061Z,87.57
2019-06-26T02:07:10.889Z,82.33
2019-06-26T02:09:40.786Z,78.77
2019-06-26T02:12:10.962Z,76.30
2019-06-26T02:14:40.652Z,78.87
2019-06-26T02:17:10.410Z,91.23
2019-06-26T02:19:40.274Z,88.47
2019-06-26T02:22:09.957Z,94.27
2019-06-26T02:24:39.712Z,102.53
2019-06-26T02:27:09.562Z,88.53
2019-06-26T02:29:39.276Z,93.67
2019-06-26T02:32:09.011Z,98.67
2019-06-26T02:34:38.721Z,113.37
2019-06-26T02:37:08.535Z,107.07
2019-06-26T02:39:38.328Z,96.90
2019-06-26T02:42:08.054Z,78.57
2019-06-26T02:44:52.458Z,107.83
2019-06-26T02:47:19.705Z,70.87
2019-06-26T02:49:40.437Z,93.13
2019-06-26T02:52:10.751Z,80.27
2019-06-26T02:54:40.487Z,85.37
2019-06-26T02:57:10.230Z,104.63
2019-06-26T02:59:40.012Z,96.20
2019-06-26T03:02:09.727Z,85.23
2019-06-26T03:04:39.373Z,104.43
2019-06-26T03:07:09.215Z,115.03
2019-06-26T03:09:38.927Z,110.67
2019-06-26T03:12:08.726Z,104.33
2019-06-26T03:14:38.423Z,116.30
2019-06-26T03:17:08.128Z,109.47
2019-06-26T03:19:37.857Z,110.07
2019-06-26T03:22:07.728Z,116.83
2019-06-26T03:24:37.521Z,95.87
2019-06-26T03:27:09.122Z,97.87
2019-06-26T03:29:38.601Z,105.87
2019-06-26T03:32:08.685Z,92.77
2019-06-26T03:34:38.360Z,98.57
2019-06-26T03:37:08.173Z,100.53
2019-06-26T03:39:38.363Z,103.47
2019-06-26T03:42:08.190Z,109.37
2019-06-26T03:44:37.933Z,96.47
2019-06-26T03:47:07.605Z,124.33
2019-06-26T03:49:37.368Z,105.43
2019-06-26T03:52:07.059Z,93.40
2019-06-26T03:54:36.819Z,113.17
2019-06-26T03:57:06.694Z,92.80
2019-06-26T03:59:36.552Z,102.33
2019-06-26T04:02:06.407Z,109.43
2019-06-26T04:04:36.083Z,117.57
2019-06-26T04:07:05.753Z,122.43
2019-06-26T04:09:35.491Z,110.63
2019-06-26T04:12:05.903Z,93.07
2019-06-26T04:14:35.767Z,119.93
2019-06-26T04:17:05.605Z,93.47
2019-06-26T04:19:35.279Z,109.60
2019-06-26T04:22:05.524Z,91.70
2019-06-26T04:24:35.469Z,109.70
2019-06-26T04:27:05.375Z,103.07
2019-06-26T04:29:35.280Z,90.53
2019-06-26T04:32:05.021Z,99.40
2019-06-26T04:34:34.728Z,96.77
2019-06-26T04:37:04.423Z,88.30
2019-06-26T04:39:34.189Z,96.73
2019-06-26T04:42:04.294Z,88.30
2019-06-26T04:44:34.050Z,103.07
2019-06-26T04:47:03.848Z,91.63
2019-06-26T04:49:33.596Z,73.13
2019-06-26T04:52:03.376Z,81.27
2019-06-26T04:54:33.138Z,92.87
2019-06-26T04:57:03.110Z,99.73
2019-06-26T04:59:32.830Z,84.80
2019-06-26T05:02:02.727Z,72.23
2019-06-26T05:04:32.467Z,88.13
2019-06-26T05:07:02.205Z,73.53
2019-06-26T05:09:31.892Z,78.27
2019-06-26T05:12:01.595Z,67.10
2019-06-26T05:14:31.407Z,71.33
2019-06-26T05:17:01.227Z,71.83
2019-06-26T05:19:31.048Z,76.40
2019-06-26T05:22:00.805Z,75.17
2019-06-26T05:24:30.555Z,78.60
2019-06-26T05:27:00.393Z,61.00
2019-06-26T05:29:30.705Z,71.60
2019-06-26T05:32:00.385Z,66.87
2019-06-26T05:34:31.174Z,55.63
2019-06-26T05:37:01.216Z,62.03
2019-06-26T05:39:31.640Z,60.03
2019-06-26T05:42:01.918Z,62.87
2019-06-26T05:44:31.723Z,56.80
2019-06-26T05:47:01.512Z,57.37
2019-06-26T05:49:31.325Z,77.70
2019-06-26T05:52:02.155Z,61.27
2019-06-26T05:54:32.114Z,71.87
2019-06-26T05:57:01.931Z,77.97
2019-06-26T05:59:31.694Z,72.80
2019-06-26T06:02:01.429Z,59.37
2019-06-26T06:04:31.196Z,64.10
2019-06-26T06:07:00.919Z,62.57
2019-06-26T06:09:30.618Z,65.30
2019-06-26T06:12:00.386Z,55.83
2019-06-26T06:14:30.199Z,64.00
2019-06-26T06:16:59.943Z,55.33
2019-06-26T06:19:29.665Z,54.57
2019-06-26T06:21:59.557Z,56.60
2019-06-26T06:24:29.295Z,59.20
2019-06-26T06:26:59.010Z,71.40
2019-06-26T06:29:30.840Z,49.30
2019-06-26T06:32:00.788Z,49.97
2019-06-26T06:34:30.460Z,44.23
2019-06-26T06:37:00.183Z,38.13
2019-06-26T06:39:30.059Z,43.63
2019-06-26T06:41:59.876Z,38.40
2019-06-26T06:44:29.690Z,41.33
2019-06-26T06:47:04.022Z,37.60
2019-06-26T06:49:31.014Z,33.60
2019-06-26T06:52:00.880Z,23.40
2019-06-26T06:54:30.809Z,27.77
2019-06-26T06:57:00.586Z,29.93
2019-06-26T06:59:32.608Z,29.90
2019-06-26T07:02:02.381Z,23.07
2019-06-26T07:04:32.209Z,28.67
2019-06-26T07:07:01.927Z,24.63
2019-06-26T07:09:32.365Z,25.00
2019-06-26T07:12:02.075Z,22.17
2019-06-26T07:14:31.869Z,16.20
2019-06-26T07:17:20.054Z,23.83
2019-06-26T07:19:48.867Z,21.13
2019-06-26T07:22:20.082Z,22.33
2019-06-26T07:24:49.903Z,22.67
2019-06-26T07:27:19.966Z,21.50
2019-06-26T07:29:50.430Z,21.10
2019-06-26T07:32:22.245Z,19.87
2019-06-26T07:34:52.164Z,22.03
2019-06-26T07:37:23.122Z,17.47
2019-06-26T07:39:57.582Z,21.60
2019-06-26T07:42:24.964Z,21.70
2019-06-26T07:44:54.744Z,18.53
2019-06-26T07:47:41.573Z,15.70
2019-06-26T07:49:56.772Z,18.40
2019-06-26T07:52:26.528Z,18.20
2019-06-26T07:54:59.094Z,15.90
2019-06-26T07:57:29.918Z,20.63
2019-06-26T08:00:03.105Z,19.63
2019-06-26T08:02:35.418Z,19.77
2019-06-26T08:05:10.174Z,17.53
2019-06-26T08:07:42.202Z,16.23
2019-06-26T08:10:21.855Z,19.93
2019-06-26T08:12:51.902Z,17.67
2019-06-26T08:15:21.894Z,16.20
2019-06-26T08:18:00.519Z,18.13
2019-06-26T08:20:24.555Z,14.90
2019-06-26T08:22:54.461Z,18.60
2019-06-26T08:25:24.331Z,19.60
2019-06-26T08:27:54.064Z,20.53
2019-06-26T08:30:24.533Z,20.27
2019-06-26T08:32:54.601Z,23.07
2019-06-26T08:35:24.381Z,27.47
2019-06-26T08:38:09.037Z,14.63
2019-06-26T08:40:25.632Z,16.93
2019-06-26T08:42:55.716Z,14.57
2019-06-26T08:45:25.640Z,17.40
2019-06-26T08:47:55.390Z,18.60
2019-06-26T08:50:25.377Z,19.13
2019-06-26T08:52:55.219Z,19.73
2019-06-26T08:55:25.346Z,20.33
2019-06-26T08:57:55.165Z,18.33
2019-06-26T09:00:25.177Z,22.87
2019-06-26T09:02:55.105Z,19.93
2019-06-26T09:05:25.282Z,22.47
2019-06-26T09:07:55.342Z,17.73
2019-06-26T09:10:25.062Z,17.10
2019-06-26T09:12:54.899Z,16.43
2019-06-26T09:15:26.053Z,26.57
2019-06-26T09:17:55.934Z,18.20
2019-06-26T09:20:34.494Z,16.87
2019-06-26T09:23:04.562Z,20.07
2019-06-26T09:25:34.605Z,19.60
2019-06-26T09:28:04.671Z,21.27
2019-06-26T09:30:34.674Z,19.93
2019-06-26T09:33:05.780Z,17.83
2019-06-26T09:35:35.500Z,17.97
2019-06-26T09:38:05.605Z,16.87
2019-06-26T09:40:54.602Z,14.70
2019-06-26T09:43:25.058Z,13.83
2019-06-26T09:45:55.429Z,17.40
2019-06-26T09:48:25.190Z,14.77
2019-06-26T09:50:54.925Z,15.00
2019-06-26T09:53:24.750Z,16.97
2019-06-26T09:55:54.585Z,11.43
2019-06-26T09:58:33.565Z,28.03
2019-06-26T10:01:03.385Z,14.40
2019-06-26T10:03:33.653Z,12.43
2019-06-26T10:06:03.542Z,16.10
2019-06-26T10:08:33.608Z,22.00
2019-06-26T10:11:03.775Z,17.50
2019-06-26T10:13:33.731Z,14.60
2019-06-26T10:16:03.819Z,15.47
2019-06-26T10:18:33.556Z,13.23
2019-06-26T10:21:03.631Z,13.97
2019-06-26T10:23:33.438Z,17.63
2019-06-26T10:26:03.859Z,15.70
2019-06-26T10:28:33.737Z,15.83
2019-06-26T10:31:03.489Z,21.70
2019-06-26T10:33:33.277Z,15.00
2019-06-26T10:36:03.163Z,14.20
2019-06-26T10:38:33.160Z,17.50
2019-06-26T10:41:02.926Z,17.60
2019-06-26T10:43:32.734Z,13.27
2019-06-26T10:46:02.739Z,14.83
2019-06-26T10:48:32.928Z,16.57
2019-06-26T10:51:04.348Z,13.63
2019-06-26T10:53:34.186Z,14.20
2019-06-26T10:56:04.244Z,15.53
2019-06-26T10:58:33.997Z,12.73
2019-06-26T11:01:03.757Z,16.77
2019-06-26T11:03:33.835Z,17.47
2019-06-26T11:06:03.709Z,18.93
2019-06-26T11:08:33.574Z,16.50
2019-06-26T11:11:03.991Z,16.03
2019-06-26T11:13:34.320Z,18.43
2019-06-26T11:16:11.065Z,16.40
2019-06-26T11:18:41.583Z,14.70
2019-06-26T11:21:11.441Z,15.87
2019-06-26T11:23:41.370Z,17.03
2019-06-26T11:26:11.188Z,15.27
2019-06-26T11:28:41.278Z,16.03
2019-06-26T11:31:11.029Z,19.53
2019-06-26T11:33:40.908Z,17.57
2019-06-26T11:36:10.819Z,15.90
2019-06-26T11:38:40.581Z,17.33
2019-06-26T11:41:10.477Z,15.93
2019-06-26T11:43:40.365Z,16.50
2019-06-26T11:46:10.185Z,15.60
2019-06-26T11:48:39.961Z,15.73
2019-06-26T11:51:09.976Z,14.17
2019-06-26T11:53:40.270Z,16.40
2019-06-26T11:56:11.165Z,15.03
2019-06-26T11:58:40.942Z,16.57
2019-06-26T12:01:10.839Z,16.27
2019-06-26T12:03:40.671Z,19.07
2019-06-26T12:06:18.195Z,20.80
2019-06-26T12:08:41.922Z,18.20
2019-06-26T12:11:11.789Z,18.93
2019-06-26T12:13:41.693Z,15.97
2019-06-26T12:16:11.452Z,18.43
2019-06-26T12:18:41.229Z,16.30
2019-06-26T12:21:11.129Z,15.17
2019-06-26T12:23:40.946Z,16.30
2019-06-26T12:26:10.825Z,17.27
2019-06-26T12:28:40.572Z,17.40
2019-06-26T12:31:10.389Z,15.93
2019-06-26T12:33:40.268Z,17.23
2019-06-26T12:36:10.139Z,18.00
2019-06-26T12:38:40.177Z,21.37
2019-06-26T12:41:09.997Z,16.33
2019-06-26T12:43:39.886Z,17.80
2019-06-26T12:46:10.089Z,15.70
2019-06-26T12:48:39.799Z,20.43
2019-06-26T12:51:09.590Z,19.67
2019-06-26T12:53:39.425Z,19.13
2019-06-26T12:56:09.235Z,16.53
2019-06-26T12:58:39.107Z,17.03
2019-06-26T13:01:08.834Z,18.43
2019-06-26T13:03:38.671Z,20.30
2019-06-26T13:06:08.613Z,17.07
2019-06-26T13:08:38.415Z,20.00
2019-06-26T13:11:08.133Z,16.43
2019-06-26T13:13:38.973Z,18.90
2019-06-26T13:16:08.818Z,13.87
2019-06-26T13:18:38.603Z,16.67
2019-06-26T13:21:09.283Z,14.47
2019-06-26T13:23:39.147Z,15.20
2019-06-26T13:32:26.282Z,14.97
2019-06-26T13:34:56.087Z,15.97
2019-06-26T13:37:25.906Z,16.50
2019-06-26T13:39:55.645Z,15.60
2019-06-26T13:42:25.608Z,15.30
2019-06-26T13:44:55.452Z,18.17
2019-06-26T13:47:25.317Z,14.03
2019-06-26T13:49:55.242Z,12.53
2019-06-26T13:52:25.014Z,15.67
2019-06-26T13:54:57.232Z,13.70
2019-06-26T13:57:26.523Z,13.83
2019-06-26T13:59:56.436Z,11.77
2019-06-26T14:02:26.244Z,13.90
2019-06-26T14:04:56.155Z,12.03
2019-06-26T14:07:25.919Z,14.40
2019-06-26T14:09:55.725Z,15.07
2019-06-26T14:12:25.548Z,12.73
2019-06-26T14:14:57.746Z,11.17
2019-06-26T14:17:26.799Z,9.40
2019-06-26T14:19:56.690Z,12.30
2019-06-26T14:22:26.913Z,11.13
2019-06-26T14:24:56.835Z,8.97
2019-06-26T14:27:26.699Z,14.60
2019-06-26T14:29:56.452Z,12.93
2019-06-26T14:32:26.397Z,10.00
2019-06-26T14:34:58.028Z,9.07
2019-06-26T14:37:28.032Z,8.33
2019-06-26T14:39:58.071Z,12.80
2019-06-26T14:42:27.906Z,12.10
2019-06-26T14:44:57.701Z,8.83
2019-06-26T14:47:27.502Z,13.57
2019-06-26T14:49:57.318Z,12.40
2019-06-26T14:52:27.093Z,12.77
2019-06-26T14:54:56.833Z,11.57
2019-06-26T14:57:26.823Z,8.97
2019-06-26T14:59:56.723Z,11.13
2019-06-26T15:02:26.673Z,11.60
2019-06-26T15:04:56.429Z,12.93
2019-06-26T15:07:26.250Z,9.90
2019-06-26T15:09:56.264Z,10.30
2019-06-26T15:12:27.620Z,11.13
2019-06-26T15:14:57.739Z,10.00
2019-06-26T15:17:27.564Z,11.17
2019-06-26T15:19:57.619Z,9.37
2019-06-26T15:22:27.556Z,9.67
2019-06-26T15:24:57.278Z,7.93
2019-06-26T15:27:27.063Z,8.50
2019-06-26T15:29:56.815Z,11.13
2019-06-26T15:32:26.572Z,7.83
2019-06-26T15:34:56.452Z,13.43
2019-06-26T15:37:26.351Z,8.90
2019-06-26T15:39:56.209Z,9.10
2019-06-26T15:42:26.019Z,7.03
2019-06-26T15:44:56.138Z,7.57
2019-06-26T15:47:26.019Z,11.67
2019-06-26T15:49:55.830Z,9.57
2019-06-26T15:52:25.857Z,7.03
2019-06-26T15:54:55.643Z,16.20
2019-06-26T15:57:25.599Z,12.00
2019-06-26T15:59:55.465Z,9.10
2019-06-26T16:02:25.188Z,8.87
2019-06-26T16:04:55.015Z,8.03
2019-06-26T16:07:24.825Z,7.30
2019-06-26T16:09:54.599Z,8.10
2019-06-26T16:12:24.333Z,8.07
2019-06-26T16:14:54.096Z,9.23
2019-06-26T16:17:33.135Z,10.73
2019-06-26T16:20:03.006Z,8.20
2019-06-26T16:22:33.022Z,7.90
2019-06-26T16:25:03.111Z,10.13
2019-06-26T16:27:33.596Z,8.07
2019-06-26T16:30:03.609Z,8.70
2019-06-26T16:32:33.746Z,9.37
2019-06-26T16:35:04.226Z,9.33
2019-06-26T16:37:34.063Z,13.87
2019-06-26T16:40:04.029Z,11.50
2019-06-26T16:42:33.977Z,10.27
2019-06-26T16:45:04.003Z,11.00
2019-06-26T16:47:33.855Z,9.87
2019-06-26T16:50:03.722Z,7.33
2019-06-26T16:52:47.805Z,13.10
2019-06-26T16:55:05.565Z,7.47
2019-06-26T16:57:35.273Z,9.30
2019-06-26T17:00:09.899Z,8.07
2019-06-26T17:02:38.497Z,9.77
2019-06-26T17:05:08.311Z,9.67
2019-06-26T17:07:38.081Z,13.57
2019-06-26T17:16:40.200Z,6.90
2019-06-26T17:25:12.656Z,11.03
2019-06-26T17:27:42.403Z,8.63
2019-06-26T17:30:12.907Z,7.80
2019-06-26T17:32:42.732Z,7.73
2019-06-26T17:35:12.896Z,7.30
2019-06-26T17:37:42.716Z,7.13
2019-06-26T17:40:13.067Z,7.80
2019-06-26T17:42:43.045Z,6.80
2019-06-26T17:45:13.060Z,8.23
2019-06-26T17:47:42.966Z,7.50
2019-06-26T17:50:13.495Z,9.37
2019-06-26T17:52:43.536Z,10.57
2019-06-26T17:55:13.643Z,11.20
2019-06-26T17:57:47.284Z,8.73
2019-06-26T18:00:16.153Z,18.77
2019-06-26T18:02:46.054Z,15.47
2019-06-26T18:05:16.024Z,8.20
2019-06-26T18:07:46.082Z,9.00
2019-06-26T18:10:16.430Z,10.57
2019-06-26T18:12:46.152Z,9.53
2019-06-26T18:15:16.540Z,12.03
2019-06-26T18:17:49.920Z,10.07
2019-06-26T18:20:20.112Z,12.43
2019-06-26T18:23:05.448Z,8.30
2019-06-26T18:25:21.767Z,8.03
2019-06-26T18:27:51.689Z,9.43
2019-06-26T18:30:22.768Z,6.87
2019-06-26T18:32:53.398Z,9.70
2019-06-26T18:35:25.106Z,7.77
2019-06-26T18:37:54.970Z,7.73
2019-06-26T18:40:24.970Z,11.37
2019-06-26T18:42:54.988Z,9.50
2019-06-26T18:45:25.056Z,8.53
2019-06-26T18:47:54.838Z,12.57
2019-06-26T18:50:24.720Z,9.40
2019-06-26T18:52:54.627Z,7.87
2019-06-26T18:55:24.545Z,11.47
2019-06-26T18:57:54.479Z,8.10
2019-06-26T19:00:24.305Z,8.10
2019-06-26T19:02:54.179Z,7.83
2019-06-26T19:05:24.162Z,7.37
2019-06-26T19:07:54.044Z,10.77
2019-06-26T19:10:23.892Z,8.53
2019-06-26T19:12:53.730Z,9.77
2019-06-26T19:15:23.636Z,8.47
2019-06-26T19:17:54.720Z,9.77
2019-06-26T19:20:24.696Z,7.90
2019-06-26T19:22:54.592Z,7.70
2019-06-26T19:25:24.441Z,8.57
2019-06-26T19:27:54.373Z,7.60
2019-06-26T19:30:24.269Z,11.07
2019-06-26T19:32:54.360Z,9.10
2019-06-26T19:35:24.602Z,11.93
2019-06-26T19:37:54.501Z,10.57
2019-06-26T19:40:24.505Z,12.43
2019-06-26T19:42:54.310Z,9.30
2019-06-26T19:45:24.340Z,10.40
2019-06-26T19:48:16.828Z,9.60
2019-06-26T19:50:46.639Z,8.03
2019-06-26T19:53:16.511Z,25.53
2019-06-26T19:55:46.306Z,9.03
2019-06-26T19:58:16.298Z,9.97
2019-06-26T20:00:46.612Z,9.67
2019-06-26T20:03:16.482Z,6.47
2019-06-26T20:05:46.321Z,7.03
2019-06-26T20:08:16.093Z,6.77
2019-06-26T20:10:46.104Z,5.07
2019-06-26T20:13:16.372Z,10.17
2019-06-26T20:15:46.457Z,9.77
2019-06-26T20:18:16.268Z,7.43
2019-06-26T20:20:46.077Z,8.40
2019-06-26T20:23:15.884Z,8.67
2019-06-26T20:25:45.592Z,12.00
2019-06-26T20:28:15.342Z,6.90
2019-06-26T20:30:45.305Z,9.87
2019-06-26T20:33:15.434Z,9.73
2019-06-26T20:35:45.366Z,11.67
2019-06-26T20:38:15.544Z,16.63
2019-06-26T20:40:46.122Z,9.17
2019-06-26T20:43:16.307Z,8.77
2019-06-26T20:45:46.180Z,12.43
2019-06-26T20:48:16.017Z,13.23
2019-06-26T20:50:45.808Z,9.23
2019-06-26T20:53:15.568Z,8.83
2019-06-26T20:55:45.482Z,8.60
2019-06-26T20:58:15.284Z,8.60
2019-06-26T21:00:45.491Z,7.73
2019-06-26T21:03:15.449Z,13.27
2019-06-26T21:05:45.305Z,9.00
2019-06-26T21:08:15.934Z,8.03
2019-06-26T21:10:46.011Z,9.50
2019-06-26T21:13:16.232Z,7.30
2019-06-26T21:15:52.785Z,9.87
2019-06-26T21:18:22.403Z,8.93
2019-06-26T21:20:52.674Z,7.03
2019-06-26T21:23:23.569Z,9.07
2019-06-26T21:25:53.859Z,8.43
2019-06-26T21:28:23.756Z,8.47
2019-06-26T21:30:53.533Z,14.00
2019-06-26T21:33:23.431Z,13.97
2019-06-26T21:35:53.173Z,8.80
2019-06-26T21:38:23.100Z,8.17
2019-06-26T21:40:52.929Z,12.77
2019-06-26T21:43:22.622Z,12.07
2019-06-26T21:45:52.354Z,12.63
2019-06-26T21:48:22.185Z,11.13
2019-06-26T21:50:51.854Z,7.67
2019-06-26T21:53:21.650Z,11.40
2019-06-26T21:55:51.451Z,11.63
2019-06-26T21:58:21.298Z,15.47
2019-06-26T22:00:51.149Z,9.93
2019-06-26T22:03:21.074Z,13.23
2019-06-26T22:05:50.903Z,15.73
2019-06-26T22:08:21.057Z,11.70
2019-06-26T22:10:50.801Z,9.63
2019-06-26T22:13:20.696Z,9.03
2019-06-26T22:15:51.108Z,13.90
2019-06-26T22:18:21.455Z,12.87
2019-06-26T22:20:51.437Z,9.00
2019-06-26T22:23:21.334Z,14.37
2019-06-26T22:25:51.600Z,13.43
2019-06-26T22:28:21.888Z,10.53
2019-06-26T22:30:51.878Z,10.63
2019-06-26T22:33:21.737Z,14.53
2019-06-26T22:35:51.535Z,9.20
2019-06-26T22:38:21.364Z,12.53
2019-06-26T22:40:51.088Z,12.00
2019-06-26T22:43:21.001Z,15.00
2019-06-26T22:45:50.894Z,8.37
2019-06-26T22:48:20.676Z,11.37
2019-06-26T22:50:50.461Z,10.63
2019-06-26T22:53:20.369Z,16.73
2019-06-26T22:56:06.436Z,11.93
2019-06-26T22:58:21.967Z,10.63
2019-06-26T23:00:51.877Z,7.80
2019-06-26T23:03:21.689Z,9.07
2019-06-26T23:05:51.656Z,9.97
2019-06-26T23:08:21.431Z,12.00
2019-06-26T23:10:51.147Z,9.13
2019-06-26T23:13:21.139Z,10.20
2019-06-26T23:15:51.058Z,16.70
2019-06-26T23:18:20.915Z,11.20
2019-06-26T23:20:50.752Z,9.60
2019-06-26T23:23:20.734Z,10.00
2019-06-26T23:25:50.753Z,15.70
2019-06-26T23:28:20.779Z,8.87
2019-06-26T23:30:50.578Z,11.17
2019-06-26T23:33:20.419Z,11.90
2019-06-26T23:35:50.134Z,9.10
2019-06-26T23:38:20.085Z,11.47
2019-06-26T23:40:50.022Z,9.03
2019-06-26T23:43:19.889Z,13.43
2019-06-26T23:45:49.942Z,9.27
2019-06-26T23:48:19.761Z,11.63
2019-06-26T23:50:50.125Z,6.47
2019-06-26T23:53:19.996Z,9.40
